<?xml version="1.0" encoding="UTF-8" standalone="no" ?><gpx xmlns="http://www.topografix.com/GPX/1/1" xmlns:gpxx="http://www.garmin.com/xmlschemas/GpxExtensions/v3" xmlns:wptx1="http://www.garmin.com/xmlschemas/WaypointExtension/v1" xmlns:gpxtpx="http://www.garmin.com/xmlschemas/TrackPointExtension/v1" creator="GuideVTT.com" version="1.1" xmlns:xsi="http://www.w3.org/2001/XMLSchema-instance" xsi:schemaLocation="http://www.topografix.com/GPX/1/1 http://www.topografix.com/GPX/1/1/gpx.xsd http://www.garmin.com/xmlschemas/GpxExtensions/v3 http://www8.garmin.com/xmlschemas/GpxExtensionsv3.xsd http://www.garmin.com/xmlschemas/WaypointExtension/v1 http://www8.garmin.com/xmlschemas/WaypointExtensionv1.xsd http://www.garmin.com/xmlschemas/TrackPointExtension/v1 http://www.garmin.com/xmlschemas/TrackPointExtensionv1.xsd">
<metadata><link href="http://www.garmin.com"><text>Garmin International</text></link><time>2013-06-22T15:13:50Z</time></metadata>
<trk><name>rp_2009_16.gpx</name><extensions><gpxx:TrackExtension><gpxx:DisplayColor>Cyan</gpxx:DisplayColor></gpxx:TrackExtension></extensions><trkseg>
<trkpt lat="46.22448206" lon="7.28000879"><ele>497.138916</ele><time>2009-09-21T11:50:36Z</time></trkpt>
<trkpt lat="46.22465372" lon="7.27975130"><ele>489.929077</ele><time>2009-09-21T11:53:47Z</time></trkpt>
<trkpt lat="46.22465372" lon="7.27932215"><ele>489.448364</ele><time>2009-09-21T11:54:02Z</time></trkpt>
<trkpt lat="46.22536182" lon="7.27960110"><ele>495.216187</ele><time>2009-09-21T11:54:50Z</time></trkpt>
<trkpt lat="46.22373104" lon="7.27646828"><ele>487.525635</ele><time>2009-09-21T11:55:40Z</time></trkpt>
<trkpt lat="46.22248650" lon="7.27535248"><ele>486.564453</ele><time>2009-09-21T11:56:07Z</time></trkpt>
<trkpt lat="46.22122049" lon="7.27376461"><ele>486.08374</ele><time>2009-09-21T11:56:37Z</time></trkpt>
<trkpt lat="46.21920347" lon="7.27264881"><ele>487.525635</ele><time>2009-09-21T11:57:19Z</time></trkpt>
<trkpt lat="46.21862411" lon="7.27215528"><ele>488.967773</ele><time>2009-09-21T11:57:33Z</time></trkpt>
<trkpt lat="46.21836662" lon="7.27183342"><ele>489.448364</ele><time>2009-09-21T11:57:42Z</time></trkpt>
<trkpt lat="46.21819496" lon="7.27103949"><ele>488.967773</ele><time>2009-09-21T11:57:56Z</time></trkpt>
<trkpt lat="46.21836662" lon="7.27067471"><ele>488.967773</ele><time>2009-09-21T11:58:03Z</time></trkpt>
<trkpt lat="46.21926785" lon="7.26970911"><ele>489.929077</ele><time>2009-09-21T11:58:24Z</time></trkpt>
<trkpt lat="46.21978283" lon="7.26891518"><ele>489.929077</ele><time>2009-09-21T11:58:39Z</time></trkpt>
<trkpt lat="46.22066259" lon="7.26840019"><ele>489.448364</ele><time>2009-09-21T11:59:00Z</time></trkpt>
<trkpt lat="46.22177839" lon="7.26739168"><ele>488.00647</ele><time>2009-09-21T11:59:42Z</time></trkpt>
<trkpt lat="46.22220755" lon="7.26741314"><ele>496.177734</ele><time>2009-09-21T12:00:11Z</time></trkpt>
<trkpt lat="46.22267962" lon="7.26797104"><ele>503.387451</ele><time>2009-09-21T12:00:47Z</time></trkpt>
<trkpt lat="46.22317314" lon="7.26921558"><ele>516.845947</ele><time>2009-09-21T12:01:54Z</time></trkpt>
<trkpt lat="46.22626305" lon="7.27202654"><ele>569.718506</ele><time>2009-09-21T12:06:41Z</time></trkpt>
<trkpt lat="46.22703552" lon="7.27320671"><ele>582.696289</ele><time>2009-09-21T12:08:12Z</time></trkpt>
<trkpt lat="46.22677803" lon="7.27355003"><ele>587.983398</ele><time>2009-09-21T12:08:49Z</time></trkpt>
<trkpt lat="46.22911692" lon="7.27530956"><ele>628.8396</ele><time>2009-09-21T12:12:38Z</time></trkpt>
<trkpt lat="46.22943878" lon="7.27584600"><ele>629.320068</ele><time>2009-09-21T12:13:06Z</time></trkpt>
<trkpt lat="46.23044729" lon="7.27691889"><ele>649.0271</ele><time>2009-09-21T12:14:46Z</time></trkpt>
<trkpt lat="46.23109102" lon="7.27792740"><ele>651.911133</ele><time>2009-09-21T12:15:35Z</time></trkpt>
<trkpt lat="46.23143435" lon="7.27812052"><ele>652.391846</ele><time>2009-09-21T12:15:50Z</time></trkpt>
<trkpt lat="46.23175621" lon="7.27801323"><ele>657.679199</ele><time>2009-09-21T12:16:14Z</time></trkpt>
<trkpt lat="46.23175621" lon="7.27882862"><ele>668.734375</ele><time>2009-09-21T12:17:06Z</time></trkpt>
<trkpt lat="46.23212099" lon="7.27936506"><ele>677.38623</ele><time>2009-09-21T12:17:52Z</time></trkpt>
<trkpt lat="46.23306513" lon="7.27990150"><ele>688.441406</ele><time>2009-09-21T12:19:06Z</time></trkpt>
<trkpt lat="46.23280764" lon="7.28022337"><ele>693.247803</ele><time>2009-09-21T12:19:40Z</time></trkpt>
<trkpt lat="46.23287201" lon="7.28033066"><ele>695.651123</ele><time>2009-09-21T12:19:51Z</time></trkpt>
<trkpt lat="46.23381615" lon="7.28108168"><ele>709.590332</ele><time>2009-09-21T12:21:21Z</time></trkpt>
<trkpt lat="46.23396635" lon="7.28166103"><ele>719.684326</ele><time>2009-09-21T12:21:56Z</time></trkpt>
<trkpt lat="46.23426676" lon="7.28191853"><ele>726.41333</ele><time>2009-09-21T12:22:27Z</time></trkpt>
<trkpt lat="46.23484612" lon="7.28284121"><ele>740.833008</ele><time>2009-09-21T12:23:49Z</time></trkpt>
<trkpt lat="46.23581171" lon="7.28616714"><ele>777.363281</ele><time>2009-09-21T12:27:08Z</time></trkpt>
<trkpt lat="46.23697042" lon="7.28777647"><ele>793.224854</ele><time>2009-09-21T12:29:11Z</time></trkpt>
<trkpt lat="46.23787165" lon="7.28833437"><ele>804.760742</ele><time>2009-09-21T12:30:19Z</time></trkpt>
<trkpt lat="46.23810768" lon="7.29063034"><ele>801.39624</ele><time>2009-09-21T12:30:55Z</time></trkpt>
<trkpt lat="46.23881578" lon="7.29311943"><ele>799.473633</ele><time>2009-09-21T12:31:44Z</time></trkpt>
<trkpt lat="46.23997450" lon="7.29496479"><ele>802.357422</ele><time>2009-09-21T12:32:54Z</time></trkpt>
<trkpt lat="46.24081135" lon="7.29571581"><ele>806.68335</ele><time>2009-09-21T12:33:36Z</time></trkpt>
<trkpt lat="46.24218464" lon="7.29590893"><ele>810.528564</ele><time>2009-09-21T12:34:09Z</time></trkpt>
<trkpt lat="46.24345064" lon="7.29638100"><ele>812.932129</ele><time>2009-09-21T12:34:38Z</time></trkpt>
<trkpt lat="46.24394417" lon="7.29681015"><ele>813.412842</ele><time>2009-09-21T12:34:51Z</time></trkpt>
<trkpt lat="46.24486685" lon="7.29803324"><ele>815.335449</ele><time>2009-09-21T12:35:25Z</time></trkpt>
<trkpt lat="46.24518871" lon="7.29867697"><ele>816.777344</ele><time>2009-09-21T12:35:40Z</time></trkpt>
<trkpt lat="46.24529600" lon="7.30024338"><ele>821.103271</ele><time>2009-09-21T12:36:12Z</time></trkpt>
<trkpt lat="46.24615431" lon="7.30247498"><ele>825.909668</ele><time>2009-09-21T12:37:01Z</time></trkpt>
<trkpt lat="46.24647617" lon="7.30283976"><ele>827.832275</ele><time>2009-09-21T12:37:13Z</time></trkpt>
<trkpt lat="46.24684095" lon="7.30279684"><ele>831.197266</ele><time>2009-09-21T12:37:25Z</time></trkpt>
<trkpt lat="46.24784946" lon="7.30213165"><ele>839.368164</ele><time>2009-09-21T12:38:14Z</time></trkpt>
<trkpt lat="46.24945879" lon="7.30191708"><ele>853.788086</ele><time>2009-09-21T12:39:40Z</time></trkpt>
<trkpt lat="46.25018835" lon="7.30211020"><ele>860.998047</ele><time>2009-09-21T12:40:20Z</time></trkpt>
<trkpt lat="46.25066042" lon="7.30234623"><ele>864.843262</ele><time>2009-09-21T12:40:47Z</time></trkpt>
<trkpt lat="46.25175476" lon="7.30348349"><ele>872.533691</ele><time>2009-09-21T12:42:02Z</time></trkpt>
<trkpt lat="46.25231266" lon="7.30421305"><ele>879.262939</ele><time>2009-09-21T12:42:44Z</time></trkpt>
<trkpt lat="46.25261307" lon="7.30500698"><ele>885.031006</ele><time>2009-09-21T12:43:20Z</time></trkpt>
<trkpt lat="46.25308514" lon="7.30520010"><ele>889.837402</ele><time>2009-09-21T12:43:48Z</time></trkpt>
<trkpt lat="46.25342846" lon="7.30584383"><ele>893.682861</ele><time>2009-09-21T12:44:20Z</time></trkpt>
<trkpt lat="46.25471592" lon="7.30627298"><ele>906.6604</ele><time>2009-09-21T12:45:27Z</time></trkpt>
<trkpt lat="46.25555277" lon="7.30734587"><ele>908.583252</ele><time>2009-09-21T12:46:08Z</time></trkpt>
<trkpt lat="46.25623941" lon="7.30717421"><ele>914.351074</ele><time>2009-09-21T12:46:49Z</time></trkpt>
<trkpt lat="46.25756979" lon="7.30764627"><ele>928.290283</ele><time>2009-09-21T12:48:20Z</time></trkpt>
<trkpt lat="46.25752687" lon="7.30741024"><ele>929.251465</ele><time>2009-09-21T12:48:27Z</time></trkpt>
<trkpt lat="46.25709772" lon="7.30710983"><ele>929.732178</ele><time>2009-09-21T12:48:44Z</time></trkpt>
<trkpt lat="46.25623941" lon="7.30582237"><ele>941.268066</ele><time>2009-09-21T12:50:00Z</time></trkpt>
<trkpt lat="46.25735521" lon="7.30685234"><ele>947.997314</ele><time>2009-09-21T12:51:04Z</time></trkpt>
<trkpt lat="46.25795603" lon="7.30710983"><ele>952.322998</ele><time>2009-09-21T12:51:35Z</time></trkpt>
<trkpt lat="46.25877142" lon="7.30977058"><ele>962.897705</ele><time>2009-09-21T12:53:10Z</time></trkpt>
<trkpt lat="46.25945807" lon="7.31028557"><ele>967.223633</ele><time>2009-09-21T12:53:54Z</time></trkpt>
<trkpt lat="46.26005888" lon="7.31024265"><ele>966.262207</ele><time>2009-09-21T12:54:09Z</time></trkpt>
<trkpt lat="46.26111031" lon="7.31062889"><ele>966.74292</ele><time>2009-09-21T12:54:35Z</time></trkpt>
<trkpt lat="46.26201153" lon="7.31168032"><ele>968.665527</ele><time>2009-09-21T12:55:00Z</time></trkpt>
<trkpt lat="46.26276255" lon="7.31286049"><ele>968.665527</ele><time>2009-09-21T12:55:22Z</time></trkpt>
<trkpt lat="46.26387835" lon="7.31397629"><ele>970.107422</ele><time>2009-09-21T12:55:48Z</time></trkpt>
<trkpt lat="46.26452208" lon="7.31509209"><ele>974.914307</ele><time>2009-09-21T12:56:29Z</time></trkpt>
<trkpt lat="46.26608849" lon="7.31504917"><ele>980.201416</ele><time>2009-09-21T12:57:16Z</time></trkpt>
<trkpt lat="46.26692533" lon="7.31528521"><ele>983.565918</ele><time>2009-09-21T12:57:39Z</time></trkpt>
<trkpt lat="46.26711845" lon="7.31504917"><ele>983.085205</ele><time>2009-09-21T12:57:45Z</time></trkpt>
<trkpt lat="46.26726866" lon="7.31434107"><ele>981.643311</ele><time>2009-09-21T12:57:53Z</time></trkpt>
<trkpt lat="46.26771927" lon="7.31363297"><ele>981.162842</ele><time>2009-09-21T12:58:00Z</time></trkpt>
<trkpt lat="46.26883507" lon="7.31258154"><ele>974.914307</ele><time>2009-09-21T12:58:13Z</time></trkpt>
<trkpt lat="46.26894236" lon="7.31303215"><ele>974.914307</ele><time>2009-09-21T12:58:18Z</time></trkpt>
<trkpt lat="46.26874924" lon="7.31442690"><ele>974.433594</ele><time>2009-09-21T12:59:04Z</time></trkpt>
<trkpt lat="46.26797676" lon="7.31582165"><ele>983.085205</ele><time>2009-09-21T13:00:21Z</time></trkpt>
<trkpt lat="46.26806259" lon="7.31689453"><ele>990.29541</ele><time>2009-09-21T13:01:12Z</time></trkpt>
<trkpt lat="46.26887798" lon="7.31796741"><ele>1003.272949</ele><time>2009-09-21T13:02:22Z</time></trkpt>
<trkpt lat="46.26911402" lon="7.31811762"><ele>1004.715088</ele><time>2009-09-21T13:02:39Z</time></trkpt>
<trkpt lat="46.26999378" lon="7.31766701"><ele>1009.041016</ele><time>2009-09-21T13:03:38Z</time></trkpt>
<trkpt lat="46.27121687" lon="7.31880426"><ele>1021.057617</ele><time>2009-09-21T13:05:39Z</time></trkpt>
<trkpt lat="46.27267599" lon="7.31964111"><ele>1027.306152</ele><time>2009-09-21T13:09:03Z</time></trkpt>
<trkpt lat="46.27392054" lon="7.32092857"><ele>1042.206543</ele><time>2009-09-21T13:10:50Z</time></trkpt>
<trkpt lat="46.27480030" lon="7.32228041"><ele>1059.029541</ele><time>2009-09-21T13:12:20Z</time></trkpt>
<trkpt lat="46.27718210" lon="7.32479095"><ele>1087.388428</ele><time>2009-09-21T13:15:36Z</time></trkpt>
<trkpt lat="46.27823353" lon="7.32655048"><ele>1104.21167</ele><time>2009-09-21T13:17:19Z</time></trkpt>
<trkpt lat="46.27898455" lon="7.32732296"><ele>1104.692139</ele><time>2009-09-21T13:18:28Z</time></trkpt>
<trkpt lat="46.27977848" lon="7.32777357"><ele>1109.979248</ele><time>2009-09-21T13:19:37Z</time></trkpt>
<trkpt lat="46.28149509" lon="7.32837439"><ele>1124.879883</ele><time>2009-09-21T13:21:06Z</time></trkpt>
<trkpt lat="46.28095865" lon="7.32753754"><ele>1133.051025</ele><time>2009-09-21T13:21:46Z</time></trkpt>
<trkpt lat="46.27894163" lon="7.32511282"><ele>1159.006592</ele><time>2009-09-21T13:24:28Z</time></trkpt>
<trkpt lat="46.27838373" lon="7.32378244"><ele>1169.581299</ele><time>2009-09-21T13:25:30Z</time></trkpt>
<trkpt lat="46.27853394" lon="7.32376099"><ele>1171.984375</ele><time>2009-09-21T13:25:43Z</time></trkpt>
<trkpt lat="46.27898455" lon="7.32436180"><ele>1187.846191</ele><time>2009-09-21T13:26:33Z</time></trkpt>
<trkpt lat="46.27988577" lon="7.32509136"><ele>1196.97876</ele><time>2009-09-21T13:27:53Z</time></trkpt>
<trkpt lat="46.28273964" lon="7.32616425"><ele>1206.591797</ele><time>2009-09-21T13:31:08Z</time></trkpt>
<trkpt lat="46.28430605" lon="7.32603550"><ele>1209.956299</ele><time>2009-09-21T13:32:50Z</time></trkpt>
<trkpt lat="46.28587246" lon="7.32524157"><ele>1212.840576</ele><time>2009-09-21T13:34:31Z</time></trkpt>
<trkpt lat="46.28666639" lon="7.32528448"><ele>1215.243896</ele><time>2009-09-21T13:35:12Z</time></trkpt>
<trkpt lat="46.28743887" lon="7.32436180"><ele>1216.205078</ele><time>2009-09-21T13:36:01Z</time></trkpt>
<trkpt lat="46.28861904" lon="7.32399702"><ele>1216.205078</ele><time>2009-09-21T13:37:19Z</time></trkpt>
<trkpt lat="46.28958464" lon="7.32425451"><ele>1217.646973</ele><time>2009-09-21T13:38:16Z</time></trkpt>
<trkpt lat="46.28994942" lon="7.32378244"><ele>1220.531006</ele><time>2009-09-21T13:38:49Z</time></trkpt>
<trkpt lat="46.29329681" lon="7.32382536"><ele>1231.586182</ele><time>2009-09-21T13:42:34Z</time></trkpt>
<trkpt lat="46.29396200" lon="7.32403994"><ele>1235.431396</ele><time>2009-09-21T13:43:08Z</time></trkpt>
<trkpt lat="46.29636526" lon="7.32558489"><ele>1240.238037</ele><time>2009-09-21T13:45:09Z</time></trkpt>
<trkpt lat="46.29726648" lon="7.32558489"><ele>1243.121826</ele><time>2009-09-21T13:46:02Z</time></trkpt>
<trkpt lat="46.29782438" lon="7.32522011"><ele>1249.370605</ele><time>2009-09-21T13:47:03Z</time></trkpt>
<trkpt lat="46.29863977" lon="7.32414722"><ele>1253.696533</ele><time>2009-09-21T13:48:11Z</time></trkpt>
<trkpt lat="46.29924059" lon="7.32260227"><ele>1254.177246</ele><time>2009-09-21T13:48:56Z</time></trkpt>
<trkpt lat="46.29954100" lon="7.32092857"><ele>1254.177246</ele><time>2009-09-21T13:49:28Z</time></trkpt>
<trkpt lat="46.30007744" lon="7.31992006"><ele>1255.138428</ele><time>2009-09-21T13:49:50Z</time></trkpt>
<trkpt lat="46.30130053" lon="7.31906176"><ele>1264.751709</ele><time>2009-09-21T13:51:09Z</time></trkpt>
<trkpt lat="46.30140781" lon="7.31863260"><ele>1267.155029</ele><time>2009-09-21T13:51:32Z</time></trkpt>
<trkpt lat="46.30132198" lon="7.31850386"><ele>1268.596924</ele><time>2009-09-21T13:51:43Z</time></trkpt>
<trkpt lat="46.30093575" lon="7.31871843"><ele>1271.480713</ele><time>2009-09-21T13:52:11Z</time></trkpt>
<trkpt lat="46.30104303" lon="7.31689453"><ele>1420.966064</ele><time>2009-09-21T13:53:41Z</time></trkpt>
<trkpt lat="46.30117178" lon="7.31657267"><ele>1420.966064</ele><time>2009-09-21T13:53:58Z</time></trkpt>
<trkpt lat="46.30177259" lon="7.31599331"><ele>1421.927246</ele><time>2009-09-21T13:54:45Z</time></trkpt>
<trkpt lat="46.30286694" lon="7.31416941"><ele>1432.501709</ele><time>2009-09-21T13:55:54Z</time></trkpt>
<trkpt lat="46.30310297" lon="7.31416941"><ele>1433.943604</ele><time>2009-09-21T13:56:03Z</time></trkpt>
<trkpt lat="46.30351067" lon="7.31464148"><ele>1433.943604</ele><time>2009-09-21T13:56:17Z</time></trkpt>
<trkpt lat="46.30346775" lon="7.31515646"><ele>1434.905029</ele><time>2009-09-21T13:56:30Z</time></trkpt>
<trkpt lat="46.30271673" lon="7.31661558"><ele>1444.518066</ele><time>2009-09-21T13:57:32Z</time></trkpt>
<trkpt lat="46.30237341" lon="7.31893301"><ele>1459.89917</ele><time>2009-09-21T13:58:57Z</time></trkpt>
<trkpt lat="46.30209446" lon="7.31940508"><ele>1460.860596</ele><time>2009-09-21T13:59:18Z</time></trkpt>
<trkpt lat="46.30211592" lon="7.31972694"><ele>1464.225098</ele><time>2009-09-21T13:59:30Z</time></trkpt>
<trkpt lat="46.30250216" lon="7.32056379"><ele>1465.186523</ele><time>2009-09-21T14:00:06Z</time></trkpt>
<trkpt lat="46.30254507" lon="7.32107878"><ele>1467.5896</ele><time>2009-09-21T14:00:24Z</time></trkpt>
<trkpt lat="46.30582809" lon="7.33275175"><ele>1562.279541</ele><time>2009-09-21T14:19:18Z</time></trkpt>
<trkpt lat="46.30589247" lon="7.33247280"><ele>1579.102539</ele><time>2009-09-21T14:28:19Z</time></trkpt>
<trkpt lat="46.30569935" lon="7.33245134"><ele>1581.986816</ele><time>2009-09-21T14:30:46Z</time></trkpt>
<trkpt lat="46.30593538" lon="7.33236551"><ele>1581.986816</ele><time>2009-09-21T14:31:02Z</time></trkpt>
<trkpt lat="46.30587101" lon="7.33133554"><ele>1581.986816</ele><time>2009-09-21T14:31:13Z</time></trkpt>
<trkpt lat="46.30542040" lon="7.33019829"><ele>1581.986816</ele><time>2009-09-21T14:31:23Z</time></trkpt>
<trkpt lat="46.30518436" lon="7.33000517"><ele>1581.986816</ele><time>2009-09-21T14:31:26Z</time></trkpt>
<trkpt lat="46.30436897" lon="7.32871771"><ele>1581.986816</ele><time>2009-09-21T14:31:39Z</time></trkpt>
<trkpt lat="46.30282402" lon="7.32687235"><ele>1581.986816</ele><time>2009-09-21T14:31:57Z</time></trkpt>
<trkpt lat="46.30181551" lon="7.32603550"><ele>1571.892822</ele><time>2009-09-21T14:32:08Z</time></trkpt>
<trkpt lat="46.30177259" lon="7.32539177"><ele>1571.892822</ele><time>2009-09-21T14:32:15Z</time></trkpt>
<trkpt lat="46.30235195" lon="7.32086420"><ele>1548.340576</ele><time>2009-09-21T14:32:45Z</time></trkpt>
<trkpt lat="46.30192280" lon="7.31914759"><ele>1467.109131</ele><time>2009-09-21T14:32:57Z</time></trkpt>
<trkpt lat="46.30235195" lon="7.31826782"><ele>1463.263916</ele><time>2009-09-21T14:33:06Z</time></trkpt>
<trkpt lat="46.30254507" lon="7.31670141"><ele>1460.860596</ele><time>2009-09-21T14:33:18Z</time></trkpt>
<trkpt lat="46.30368233" lon="7.31436253"><ele>1458.457275</ele><time>2009-09-21T14:33:37Z</time></trkpt>
<trkpt lat="46.30297422" lon="7.31412649"><ele>1454.131592</ele><time>2009-09-21T14:33:43Z</time></trkpt>
<trkpt lat="46.30258799" lon="7.31498480"><ele>1449.324707</ele><time>2009-09-21T14:33:53Z</time></trkpt>
<trkpt lat="46.30192280" lon="7.31564999"><ele>1449.324707</ele><time>2009-09-21T14:34:06Z</time></trkpt>
<trkpt lat="46.30108595" lon="7.31685162"><ele>1449.324707</ele><time>2009-09-21T14:34:21Z</time></trkpt>
<trkpt lat="46.30052805" lon="7.31854677"><ele>1447.4021</ele><time>2009-09-21T14:34:33Z</time></trkpt>
<trkpt lat="46.30052805" lon="7.31893301"><ele>1445.960205</ele><time>2009-09-21T14:34:37Z</time></trkpt>
<trkpt lat="46.30093575" lon="7.31873989"><ele>1441.153564</ele><time>2009-09-21T14:34:45Z</time></trkpt>
<trkpt lat="46.30078554" lon="7.31940508"><ele>1438.750488</ele><time>2009-09-21T14:34:52Z</time></trkpt>
<trkpt lat="46.29975557" lon="7.32002735"><ele>1433.943604</ele><time>2009-09-21T14:35:01Z</time></trkpt>
<trkpt lat="46.29939079" lon="7.32056379"><ele>1431.540283</ele><time>2009-09-21T14:35:06Z</time></trkpt>
<trkpt lat="46.29881144" lon="7.32225895"><ele>1431.059814</ele><time>2009-09-21T14:35:22Z</time></trkpt>
<trkpt lat="46.29878998" lon="7.32309580"><ele>1431.059814</ele><time>2009-09-21T14:35:29Z</time></trkpt>
<trkpt lat="46.29776001" lon="7.32519865"><ele>1424.811279</ele><time>2009-09-21T14:35:51Z</time></trkpt>
<trkpt lat="46.29741669" lon="7.32560635"><ele>1420.966064</ele><time>2009-09-21T14:35:56Z</time></trkpt>
<trkpt lat="46.29623652" lon="7.32612133"><ele>1414.236572</ele><time>2009-09-21T14:36:06Z</time></trkpt>
<trkpt lat="46.29533529" lon="7.32575655"><ele>1407.507568</ele><time>2009-09-21T14:36:15Z</time></trkpt>
<trkpt lat="46.29308224" lon="7.32403994"><ele>1388.761963</ele><time>2009-09-21T14:36:42Z</time></trkpt>
<trkpt lat="46.29003525" lon="7.32408285"><ele>1383.474365</ele><time>2009-09-21T14:37:10Z</time></trkpt>
<trkpt lat="46.28904819" lon="7.32532740"><ele>1376.745361</ele><time>2009-09-21T14:37:17Z</time></trkpt>
<trkpt lat="46.28870487" lon="7.32504845"><ele>1376.264648</ele><time>2009-09-21T14:37:20Z</time></trkpt>
<trkpt lat="46.28705263" lon="7.32530594"><ele>1375.783936</ele><time>2009-09-21T14:37:35Z</time></trkpt>
<trkpt lat="46.28664494" lon="7.32556343"><ele>1375.783936</ele><time>2009-09-21T14:37:38Z</time></trkpt>
<trkpt lat="46.28640890" lon="7.32517719"><ele>1375.783936</ele><time>2009-09-21T14:37:46Z</time></trkpt>
<trkpt lat="46.28557205" lon="7.32504845"><ele>1375.783936</ele><time>2009-09-21T14:37:57Z</time></trkpt>
<trkpt lat="46.26151800" lon="7.32708693"><ele>1375.783936</ele><time>2009-09-21T14:42:27Z</time></trkpt>
<trkpt lat="46.26696825" lon="7.31953382"><ele>1375.783936</ele><time>2009-09-21T14:42:31Z</time></trkpt>
<trkpt lat="46.26879215" lon="7.31386900"><ele>954.726318</ele><time>2009-09-21T14:42:39Z</time></trkpt>
<trkpt lat="46.26894236" lon="7.31292486"><ele>959.05249</ele><time>2009-09-21T14:42:44Z</time></trkpt>
<trkpt lat="46.26855612" lon="7.31243134"><ele>959.533203</ele><time>2009-09-21T14:42:49Z</time></trkpt>
<trkpt lat="46.26754761" lon="7.31356859"><ele>962.897705</ele><time>2009-09-21T14:43:21Z</time></trkpt>
<trkpt lat="46.26724720" lon="7.31406212"><ele>964.3396</ele><time>2009-09-21T14:43:43Z</time></trkpt>
<trkpt lat="46.26688242" lon="7.31526375"><ele>964.3396</ele><time>2009-09-21T14:44:26Z</time></trkpt>
<trkpt lat="46.26664639" lon="7.31543541"><ele>964.3396</ele><time>2009-09-21T14:44:36Z</time></trkpt>
<trkpt lat="46.26621723" lon="7.31522083"><ele>964.820313</ele><time>2009-09-21T14:44:46Z</time></trkpt>
<trkpt lat="46.26467228" lon="7.31517792"><ele>967.704102</ele><time>2009-09-21T14:45:14Z</time></trkpt>
<trkpt lat="46.26411438" lon="7.31429815"><ele>965.301025</ele><time>2009-09-21T14:45:25Z</time></trkpt>
<trkpt lat="46.26261234" lon="7.31260300"><ele>964.3396</ele><time>2009-09-21T14:45:50Z</time></trkpt>
<trkpt lat="46.26216173" lon="7.31183052"><ele>964.820313</ele><time>2009-09-21T14:46:03Z</time></trkpt>
<trkpt lat="46.26115322" lon="7.31062889"><ele>963.858887</ele><time>2009-09-21T14:46:27Z</time></trkpt>
<trkpt lat="46.25997305" lon="7.31017828"><ele>963.378418</ele><time>2009-09-21T14:46:51Z</time></trkpt>
<trkpt lat="46.25932932" lon="7.31024265"><ele>963.858887</ele><time>2009-09-21T14:47:06Z</time></trkpt>
<trkpt lat="46.25877142" lon="7.30977058"><ele>960.975098</ele><time>2009-09-21T14:47:16Z</time></trkpt>
<trkpt lat="46.25793457" lon="7.30704546"><ele>948.958496</ele><time>2009-09-21T14:47:38Z</time></trkpt>
<trkpt lat="46.25716209" lon="7.30663776"><ele>942.710205</ele><time>2009-09-21T14:47:47Z</time></trkpt>
<trkpt lat="46.25649691" lon="7.30607986"><ele>937.90332</ele><time>2009-09-21T14:47:55Z</time></trkpt>
<trkpt lat="46.25628233" lon="7.30575800"><ele>935.5</ele><time>2009-09-21T14:47:59Z</time></trkpt>
<trkpt lat="46.25615358" lon="7.30584383"><ele>934.538818</ele><time>2009-09-21T14:48:03Z</time></trkpt>
<trkpt lat="46.25626087" lon="7.30601549"><ele>933.09668</ele><time>2009-09-21T14:48:06Z</time></trkpt>
<trkpt lat="46.25752687" lon="7.30766773"><ele>920.599609</ele><time>2009-09-21T14:48:27Z</time></trkpt>
<trkpt lat="46.25634670" lon="7.30721712"><ele>907.621826</ele><time>2009-09-21T14:48:43Z</time></trkpt>
<trkpt lat="46.25570297" lon="7.30738878"><ele>901.854004</ele><time>2009-09-21T14:48:49Z</time></trkpt>
<trkpt lat="46.25533819" lon="7.30723858"><ele>899.450684</ele><time>2009-09-21T14:48:54Z</time></trkpt>
<trkpt lat="46.25478029" lon="7.30638027"><ele>896.566895</ele><time>2009-09-21T14:49:06Z</time></trkpt>
<trkpt lat="46.25353575" lon="7.30588675"><ele>886.953369</ele><time>2009-09-21T14:49:21Z</time></trkpt>
<trkpt lat="46.25267744" lon="7.30504990"><ele>878.301758</ele><time>2009-09-21T14:49:32Z</time></trkpt>
<trkpt lat="46.25211954" lon="7.30393410"><ele>871.091797</ele><time>2009-09-21T14:49:41Z</time></trkpt>
<trkpt lat="46.25091791" lon="7.30258226"><ele>858.114014</ele><time>2009-09-21T14:49:54Z</time></trkpt>
<trkpt lat="46.25014544" lon="7.30208874"><ele>850.423584</ele><time>2009-09-21T14:50:01Z</time></trkpt>
<trkpt lat="46.24941587" lon="7.30187416"><ele>845.13623</ele><time>2009-09-21T14:50:07Z</time></trkpt>
<trkpt lat="46.24767780" lon="7.30206728"><ele>832.158447</ele><time>2009-09-21T14:50:21Z</time></trkpt>
<trkpt lat="46.24681950" lon="7.30271101"><ele>826.390381</ele><time>2009-09-21T14:50:29Z</time></trkpt>
<trkpt lat="46.24630451" lon="7.30273247"><ele>823.025879</ele><time>2009-09-21T14:50:34Z</time></trkpt>
<trkpt lat="46.24531746" lon="7.30032921"><ele>815.335449</ele><time>2009-09-21T14:50:58Z</time></trkpt>
<trkpt lat="46.24512434" lon="7.29867697"><ele>811.970703</ele><time>2009-09-21T14:51:13Z</time></trkpt>
<trkpt lat="46.24493122" lon="7.29818344"><ele>810.047852</ele><time>2009-09-21T14:51:18Z</time></trkpt>
<trkpt lat="46.24407291" lon="7.29696035"><ele>805.241455</ele><time>2009-09-21T14:51:33Z</time></trkpt>
<trkpt lat="46.24355793" lon="7.29642391"><ele>803.799561</ele><time>2009-09-21T14:51:41Z</time></trkpt>
<trkpt lat="46.24244213" lon="7.29599476"><ele>803.318848</ele><time>2009-09-21T14:51:59Z</time></trkpt>
<trkpt lat="46.24076843" lon="7.29569435"><ele>801.39624</ele><time>2009-09-21T14:52:28Z</time></trkpt>
<trkpt lat="46.24016762" lon="7.29520082"><ele>799.954346</ele><time>2009-09-21T14:52:40Z</time></trkpt>
<trkpt lat="46.23872995" lon="7.29346275"><ele>788.89917</ele><time>2009-09-21T14:53:05Z</time></trkpt>
<trkpt lat="46.23819351" lon="7.29226112"><ele>785.053955</ele><time>2009-09-21T14:53:23Z</time></trkpt>
<trkpt lat="46.23759270" lon="7.29262590"><ele>778.805176</ele><time>2009-09-21T14:53:49Z</time></trkpt>
<trkpt lat="46.23729229" lon="7.29316235"><ele>773.998535</ele><time>2009-09-21T14:53:57Z</time></trkpt>
<trkpt lat="46.23716354" lon="7.29378462"><ele>770.634033</ele><time>2009-09-21T14:54:02Z</time></trkpt>
<trkpt lat="46.23735666" lon="7.29485750"><ele>763.904541</ele><time>2009-09-21T14:54:09Z</time></trkpt>
<trkpt lat="46.23834372" lon="7.29687452"><ele>745.158936</ele><time>2009-09-21T14:54:32Z</time></trkpt>
<trkpt lat="46.23767853" lon="7.29663849"><ele>727.374756</ele><time>2009-09-21T14:54:47Z</time></trkpt>
<trkpt lat="46.23621941" lon="7.29670286"><ele>689.883301</ele><time>2009-09-21T14:55:11Z</time></trkpt>
<trkpt lat="46.23557568" lon="7.29627371"><ele>669.695801</ele><time>2009-09-21T14:55:22Z</time></trkpt>
<trkpt lat="46.23503923" lon="7.29618788"><ele>653.833984</ele><time>2009-09-21T14:55:30Z</time></trkpt>
<trkpt lat="46.23441696" lon="7.29687452"><ele>640.375488</ele><time>2009-09-21T14:55:41Z</time></trkpt>
<trkpt lat="46.23413801" lon="7.29753971"><ele>635.568604</ele><time>2009-09-21T14:55:48Z</time></trkpt>
<trkpt lat="46.23463154" lon="7.30093002"><ele>615.861816</ele><time>2009-09-21T14:56:15Z</time></trkpt>
<trkpt lat="46.23448133" lon="7.30105877"><ele>612.977783</ele><time>2009-09-21T14:56:20Z</time></trkpt>
<trkpt lat="46.23422384" lon="7.30056524"><ele>608.651855</ele><time>2009-09-21T14:56:27Z</time></trkpt>
<trkpt lat="46.23403072" lon="7.30071545"><ele>606.248535</ele><time>2009-09-21T14:56:32Z</time></trkpt>
<trkpt lat="46.23413801" lon="7.30099440"><ele>603.845215</ele><time>2009-09-21T14:56:36Z</time></trkpt>
<trkpt lat="46.23403072" lon="7.30105877"><ele>601.441895</ele><time>2009-09-21T14:56:41Z</time></trkpt>
<trkpt lat="46.23336554" lon="7.30032921"><ele>584.138184</ele><time>2009-09-21T14:56:54Z</time></trkpt>
<trkpt lat="46.23267889" lon="7.30047941"><ele>569.237793</ele><time>2009-09-21T14:57:05Z</time></trkpt>
<trkpt lat="46.23252869" lon="7.30022192"><ele>563.950439</ele><time>2009-09-21T14:57:10Z</time></trkpt>
<trkpt lat="46.23239994" lon="7.29923487"><ele>553.856689</ele><time>2009-09-21T14:57:18Z</time></trkpt>
<trkpt lat="46.23199224" lon="7.29852676"><ele>545.204834</ele><time>2009-09-21T14:57:24Z</time></trkpt>
<trkpt lat="46.23098373" lon="7.29766846"><ele>536.553101</ele><time>2009-09-21T14:57:36Z</time></trkpt>
<trkpt lat="46.23076916" lon="7.29732513"><ele>532.707764</ele><time>2009-09-21T14:57:40Z</time></trkpt>
<trkpt lat="46.23018980" lon="7.29700327"><ele>522.133179</ele><time>2009-09-21T14:57:48Z</time></trkpt>
<trkpt lat="46.22898817" lon="7.29545832"><ele>499.061523</ele><time>2009-09-21T14:58:05Z</time></trkpt>
<trkpt lat="46.22853756" lon="7.29509354"><ele>494.735596</ele><time>2009-09-21T14:58:11Z</time></trkpt>
<trkpt lat="46.22838736" lon="7.29468584"><ele>494.255005</ele><time>2009-09-21T14:58:16Z</time></trkpt>
<trkpt lat="46.22836590" lon="7.29410648"><ele>494.735596</ele><time>2009-09-21T14:58:23Z</time></trkpt>
<trkpt lat="46.22858047" lon="7.29331255"><ele>494.255005</ele><time>2009-09-21T14:58:34Z</time></trkpt>
<trkpt lat="46.22849464" lon="7.29275465"><ele>494.255005</ele><time>2009-09-21T14:58:42Z</time></trkpt>
<trkpt lat="46.22806549" lon="7.29198217"><ele>493.774292</ele><time>2009-09-21T14:58:55Z</time></trkpt>
<trkpt lat="46.22755051" lon="7.28996515"><ele>492.332397</ele><time>2009-09-21T14:59:24Z</time></trkpt>
<trkpt lat="46.22761488" lon="7.28857040"><ele>493.774292</ele><time>2009-09-21T14:59:45Z</time></trkpt>
<trkpt lat="46.22716427" lon="7.28535175"><ele>496.177734</ele><time>2009-09-21T15:00:38Z</time></trkpt>
<trkpt lat="46.22725010" lon="7.28455782"><ele>496.177734</ele><time>2009-09-21T15:01:00Z</time></trkpt>
<trkpt lat="46.22656345" lon="7.28020191"><ele>496.658325</ele><time>2009-09-21T15:02:16Z</time></trkpt>
<trkpt lat="46.22467518" lon="7.27932215"><ele>483.199829</ele><time>2009-09-21T15:03:22Z</time></trkpt>
<trkpt lat="46.22456789" lon="7.27945089"><ele>482.238525</ele><time>2009-09-21T15:03:27Z</time></trkpt>
<trkpt lat="46.22467518" lon="7.27972984"><ele>482.719238</ele><time>2009-09-21T15:03:32Z</time></trkpt>
<trkpt lat="46.22448206" lon="7.28003025"><ele>481.757813</ele><time>2009-09-21T15:03:51Z</time></trkpt>
</trkseg></trk></gpx>